LOWS/SZG METAR and TAF weather

Enter ICAO airport designator
Station Type Date Time Source
LOWS METAR 2019/04/19 08:20 UTC NOAA

LOWS 190820Z 13009KT CAVOK 17/01 Q1028 NOSIG


Station Type Date Time Source
LOWS Decoded METAR 2019/04/19 08:20 UTC NOAA

Salzburg-Flughafen, Austria (LOWS) 47-48N 013-00E 450M
Apr 19, 2019 - 04:20 AM EDT / 2019.04.19 0820 UTC
Wind: from the SE (130 degrees) at 10 MPH (9 KT):0
Visibility: greater than 7 mile(s):0
Temperature: 62 F (17 C)
Dew Point: 33 F (1 C)
Relative Humidity: 33%
Pressure (altimeter): 30.36 in. Hg (1028 hPa)
ob: LOWS 190820Z 13009KT CAVOK 17/01 Q1028 NOSIG
cycle: 8

Station Type Date Time Source
LOWS TAF 2019/04/19 06:18 UTC NOAA

TAF LOWS 190515Z 1906/2006 15006KT CAVOK TX22/1914Z TN06/2004Z
BECMG 1907/1909 02006KT
TEMPO 1911/1916 05010KT 9999 FEW060
BECMG 1916/1918 15006KT

Example: see airport list